createdAt,value
2022-11-16T00:02:33.310Z,6.23
2022-11-16T00:06:41.316Z,6.21
2022-11-16T00:10:49.222Z,6.24
2022-11-16T00:14:57.491Z,6.29
2022-11-16T00:19:07.340Z,6.30
2022-11-16T00:23:15.113Z,6.29
2022-11-16T00:27:22.989Z,6.28
2022-11-16T00:31:30.761Z,6.27
2022-11-16T00:35:42.504Z,6.29
2022-11-16T00:39:50.143Z,6.30
2022-11-16T00:43:58.223Z,6.34
2022-11-16T00:48:06.018Z,6.33
2022-11-16T00:52:14.058Z,6.30
2022-11-16T00:56:22.069Z,6.30
2022-11-16T01:00:31.654Z,6.34
2022-11-16T01:04:39.807Z,6.36
2022-11-16T01:08:48.399Z,6.27
2022-11-16T01:12:56.498Z,6.19
2022-11-16T01:17:04.956Z,6.14
2022-11-16T01:21:12.685Z,6.13
2022-11-16T01:25:21.487Z,6.21
2022-11-16T01:29:30.552Z,6.27
2022-11-16T01:33:38.719Z,6.31
2022-11-16T01:37:45.954Z,6.36
2022-11-16T01:41:55.054Z,6.38
2022-11-16T01:46:02.540Z,6.38
2022-11-16T01:50:17.411Z,6.42
2022-11-16T01:54:26.623Z,6.36
2022-11-16T01:58:35.353Z,6.34
2022-11-16T02:02:43.666Z,6.27
2022-11-16T02:07:01.299Z,6.18
2022-11-16T02:11:32.971Z,6.22
2022-11-16T02:15:44.860Z,6.30
2022-11-16T02:20:08.537Z,6.38
2022-11-16T02:24:45.180Z,6.44
2022-11-16T02:29:06.135Z,6.45
2022-11-16T02:33:16.880Z,6.45
2022-11-16T02:37:26.391Z,6.46
2022-11-16T02:41:36.748Z,6.47
2022-11-16T02:45:47.631Z,6.49
2022-11-16T02:49:59.510Z,6.51
2022-11-16T02:54:13.252Z,6.48
2022-11-16T02:58:24.845Z,6.35
2022-11-16T03:02:41.814Z,6.27
2022-11-16T03:06:51.037Z,6.27
2022-11-16T03:11:19.689Z,6.29
2022-11-16T03:15:27.642Z,6.34
2022-11-16T03:19:41.309Z,6.37
2022-11-16T03:23:49.756Z,6.32
2022-11-16T03:28:01.321Z,6.28
2022-11-16T03:32:17.638Z,6.25
2022-11-16T03:36:27.817Z,6.18
2022-11-16T03:40:37.353Z,6.14
2022-11-16T03:44:45.720Z,6.11
2022-11-16T03:48:59.661Z,6.07
2022-11-16T03:53:07.894Z,6.06
2022-11-16T03:57:18.757Z,6.05
2022-11-16T04:01:26.678Z,6.09
2022-11-16T04:05:51.802Z,6.15
2022-11-16T04:10:16.846Z,6.16
2022-11-16T04:14:44.400Z,6.13
2022-11-16T04:19:10.213Z,6.13
2022-11-16T04:23:36.640Z,6.19
2022-11-16T04:28:02.295Z,6.27
2022-11-16T04:32:28.137Z,6.34
2022-11-16T04:36:53.132Z,6.33
2022-11-16T04:41:00.908Z,6.28
2022-11-16T04:45:27.788Z,6.33
2022-11-16T04:49:35.387Z,6.39
2022-11-16T04:53:42.807Z,6.43
2022-11-16T04:57:50.638Z,6.43
2022-11-16T05:02:12.235Z,6.37
2022-11-16T05:06:20.066Z,6.30
2022-11-16T05:10:27.820Z,6.28
2022-11-16T05:14:38.006Z,6.25
2022-11-16T05:19:06.177Z,6.22
2022-11-16T05:23:27.814Z,6.20
2022-11-16T05:27:35.858Z,6.12
2022-11-16T05:31:44.737Z,6.00
2022-11-16T05:35:54.040Z,5.94
2022-11-16T05:40:01.578Z,5.94
2022-11-16T05:44:10.427Z,5.93
2022-11-16T05:48:18.152Z,5.87
2022-11-16T05:52:25.596Z,5.84
2022-11-16T05:56:35.051Z,5.85
2022-11-16T06:00:44.244Z,5.89
2022-11-16T06:04:52.407Z,5.94
2022-11-16T06:09:00.158Z,5.99
2022-11-16T06:13:08.289Z,6.00
2022-11-16T06:17:16.082Z,6.01
2022-11-16T06:21:25.531Z,5.99
2022-11-16T06:25:33.666Z,5.99
2022-11-16T06:29:41.718Z,6.03
2022-11-16T06:33:49.454Z,6.05
2022-11-16T06:37:57.328Z,6.04
2022-11-16T06:42:05.274Z,6.02
2022-11-16T06:46:12.866Z,6.04
2022-11-16T06:50:21.364Z,6.10
2022-11-16T06:54:28.977Z,6.17
2022-11-16T06:58:37.000Z,6.21
2022-11-16T07:02:44.588Z,6.18
2022-11-16T07:06:52.669Z,6.17
2022-11-16T07:11:05.136Z,6.18
2022-11-16T07:15:13.739Z,6.19
2022-11-16T07:19:21.000Z,6.20
2022-11-16T07:23:29.120Z,6.20
2022-11-16T07:27:36.771Z,6.21
2022-11-16T07:31:44.935Z,6.16
2022-11-16T07:35:52.791Z,6.10
2022-11-16T07:40:00.999Z,6.09
2022-11-16T07:44:17.656Z,6.13
2022-11-16T07:48:28.140Z,6.16
2022-11-16T07:52:46.611Z,6.19
2022-11-16T07:57:00.293Z,6.18
2022-11-16T08:01:12.594Z,6.16
2022-11-16T08:05:24.338Z,6.15
2022-11-16T08:09:39.719Z,6.17
2022-11-16T08:13:52.293Z,6.24
2022-11-16T08:18:03.534Z,6.29
2022-11-16T08:22:13.135Z,6.32
2022-11-16T08:26:25.567Z,6.32
2022-11-16T08:30:39.393Z,6.36
2022-11-16T08:34:46.646Z,6.37
2022-11-16T08:38:54.537Z,6.40
2022-11-16T08:43:06.085Z,6.42
2022-11-16T08:47:16.386Z,6.42
2022-11-16T08:51:28.686Z,6.42
2022-11-16T08:55:36.663Z,6.43
2022-11-16T08:59:47.715Z,6.45
2022-11-16T09:04:07.951Z,6.47
2022-11-16T09:08:21.917Z,6.51
2022-11-16T09:12:36.456Z,6.56
2022-11-16T09:16:44.313Z,6.55
2022-11-16T09:20:58.293Z,6.49
2022-11-16T09:25:11.228Z,6.51
2022-11-16T09:29:22.856Z,6.53
2022-11-16T09:33:37.366Z,6.57
2022-11-16T09:37:52.538Z,6.60
2022-11-16T09:42:19.770Z,6.59
2022-11-16T09:46:31.133Z,6.51
2022-11-16T09:50:45.716Z,6.48
2022-11-16T09:54:54.701Z,6.50
2022-11-16T09:59:07.396Z,6.50
2022-11-16T10:03:15.863Z,6.52
2022-11-16T10:07:26.924Z,6.48
2022-11-16T10:11:48.520Z,6.43
2022-11-16T10:16:04.383Z,6.39
2022-11-16T10:20:27.627Z,6.34
2022-11-16T10:24:47.590Z,6.35
2022-11-16T10:29:05.295Z,6.40
2022-11-16T10:33:18.646Z,6.37
2022-11-16T10:37:29.565Z,6.32
2022-11-16T10:41:41.510Z,6.31
2022-11-16T10:45:53.415Z,6.34
2022-11-16T10:50:03.706Z,6.35
2022-11-16T10:54:17.784Z,6.40
2022-11-16T10:58:25.281Z,6.41
2022-11-16T11:02:35.705Z,6.44
2022-11-16T11:06:43.603Z,6.42
2022-11-16T11:11:03.430Z,6.34
2022-11-16T11:15:27.062Z,6.25
2022-11-16T11:19:35.008Z,6.21
2022-11-16T11:23:45.850Z,6.19
2022-11-16T11:27:54.635Z,6.19
2022-11-16T11:32:09.960Z,6.26
2022-11-16T11:36:22.175Z,6.35
2022-11-16T11:40:30.727Z,6.40
2022-11-16T11:44:50.027Z,6.41
2022-11-16T11:49:02.579Z,6.41
2022-11-16T11:53:15.885Z,6.41
2022-11-16T11:57:25.829Z,6.43
2022-11-16T12:02:00.621Z,6.46
2022-11-16T12:06:13.579Z,6.48
2022-11-16T12:10:27.151Z,6.46
2022-11-16T12:14:56.671Z,6.40
2022-11-16T12:19:32.406Z,6.40
2022-11-16T12:23:54.269Z,6.43
2022-11-16T12:28:15.487Z,6.47
2022-11-16T12:32:40.347Z,6.44
2022-11-16T12:36:56.065Z,6.35
2022-11-16T12:41:15.422Z,6.33
2022-11-16T12:45:46.474Z,6.37
2022-11-16T12:50:09.484Z,6.39
2022-11-16T12:54:30.646Z,6.37
2022-11-16T12:58:52.842Z,6.37
2022-11-16T13:03:13.110Z,6.36
2022-11-16T13:07:24.980Z,6.39
2022-11-16T13:11:34.758Z,6.34
2022-11-16T13:15:46.400Z,6.31
2022-11-16T13:20:15.549Z,6.30
2022-11-16T13:24:37.244Z,6.28
2022-11-16T13:28:50.726Z,6.29
2022-11-16T13:33:12.325Z,6.32
2022-11-16T13:37:44.030Z,6.37
2022-11-16T13:41:53.165Z,6.38
2022-11-16T13:46:03.077Z,6.36
2022-11-16T13:50:21.993Z,6.36
2022-11-16T13:54:45.354Z,6.37
2022-11-16T13:58:56.318Z,6.34
2022-11-16T14:03:28.486Z,6.34
2022-11-16T14:07:40.705Z,6.33
2022-11-16T14:11:49.193Z,6.33
2022-11-16T14:16:44.371Z,6.26
2022-11-16T14:20:59.002Z,6.20
2022-11-16T14:25:14.577Z,6.20
2022-11-16T14:29:34.589Z,6.23
2022-11-16T14:33:42.556Z,6.24
2022-11-16T14:38:00.349Z,6.26
2022-11-16T14:42:18.382Z,6.24
2022-11-16T14:46:32.409Z,6.26
2022-11-16T14:50:41.186Z,6.22
2022-11-16T14:54:54.994Z,6.22
2022-11-16T14:59:04.859Z,6.29
2022-11-16T15:03:15.093Z,6.24
2022-11-16T15:07:23.474Z,6.20
2022-11-16T15:11:46.210Z,6.21
2022-11-16T15:16:11.271Z,6.19
2022-11-16T15:20:22.233Z,6.17
2022-11-16T15:24:32.341Z,6.21
2022-11-16T15:28:48.711Z,6.20
2022-11-16T15:32:58.228Z,6.17
2022-11-16T15:37:05.917Z,6.15
2022-11-16T15:41:13.719Z,6.17
2022-11-16T15:45:25.702Z,6.16
2022-11-16T15:49:35.581Z,6.05
2022-11-16T15:53:44.340Z,5.99
2022-11-16T15:58:02.348Z,5.88
2022-11-16T16:02:20.261Z,5.89
2022-11-16T16:06:48.841Z,5.94
2022-11-16T16:11:06.372Z,6.01
2022-11-16T16:15:36.904Z,6.03
2022-11-16T16:19:46.530Z,6.04
2022-11-16T16:23:57.344Z,6.02
2022-11-16T16:28:05.439Z,5.99
2022-11-16T16:32:26.900Z,5.98
2022-11-16T16:36:35.303Z,5.94
2022-11-16T16:40:46.655Z,5.92
2022-11-16T16:44:54.627Z,5.91
2022-11-16T16:49:02.660Z,5.91
2022-11-16T16:53:13.191Z,5.92
2022-11-16T16:57:21.310Z,5.92
2022-11-16T17:01:29.370Z,5.89
2022-11-16T17:05:38.902Z,5.86
2022-11-16T17:09:46.514Z,5.84
2022-11-16T17:13:54.505Z,5.79
2022-11-16T17:18:03.089Z,5.75
2022-11-16T17:22:11.227Z,5.72
2022-11-16T17:26:20.035Z,5.72
2022-11-16T17:30:29.142Z,5.69
2022-11-16T17:34:38.587Z,5.65
2022-11-16T17:38:47.076Z,5.65
2022-11-16T17:42:54.764Z,5.66
2022-11-16T17:47:02.225Z,5.65
2022-11-16T17:51:09.995Z,5.63
2022-11-16T17:55:18.459Z,5.62
2022-11-16T17:59:29.456Z,5.60
2022-11-16T18:03:40.542Z,5.56
2022-11-16T18:07:48.503Z,5.53
2022-11-16T18:11:56.007Z,5.47
2022-11-16T18:16:08.182Z,5.43
2022-11-16T18:20:16.775Z,5.41
2022-11-16T18:24:24.709Z,5.42
2022-11-16T18:28:34.959Z,5.38
2022-11-16T18:32:42.902Z,5.36
2022-11-16T18:36:52.286Z,5.36
2022-11-16T18:41:19.959Z,5.36
2022-11-16T18:45:28.179Z,5.32
2022-11-16T18:49:35.483Z,5.26
2022-11-16T18:53:43.580Z,5.19
2022-11-16T18:57:50.987Z,5.15
2022-11-16T19:02:00.089Z,5.12
2022-11-16T19:06:09.254Z,5.10
2022-11-16T19:10:17.373Z,5.07
2022-11-16T19:14:25.778Z,5.00
2022-11-16T19:18:33.507Z,4.98
2022-11-16T19:22:41.293Z,4.99
2022-11-16T19:26:48.915Z,4.99
2022-11-16T19:30:56.883Z,4.96
2022-11-16T19:35:04.956Z,4.91
2022-11-16T19:39:12.753Z,4.85
2022-11-16T19:43:22.017Z,4.84
2022-11-16T19:47:29.654Z,4.85
2022-11-16T19:51:37.354Z,4.84
2022-11-16T19:55:46.187Z,4.78
2022-11-16T19:59:53.942Z,4.77
2022-11-16T20:04:03.527Z,4.79
2022-11-16T20:08:13.142Z,4.81
2022-11-16T20:12:20.990Z,4.83
2022-11-16T20:16:36.995Z,4.83
2022-11-16T20:20:46.508Z,4.81
2022-11-16T20:24:54.876Z,4.83
2022-11-16T20:29:03.638Z,4.88
2022-11-16T20:33:11.790Z,4.91
2022-11-16T20:37:20.427Z,4.88
2022-11-16T20:41:29.353Z,4.83
2022-11-16T20:45:36.920Z,4.77
2022-11-16T20:49:44.553Z,4.76
2022-11-16T20:53:53.308Z,4.78
2022-11-16T20:58:01.099Z,4.82
2022-11-16T21:02:10.924Z,4.81
2022-11-16T21:06:19.065Z,4.78
2022-11-16T21:10:27.566Z,4.70
2022-11-16T21:14:35.029Z,4.68
2022-11-16T21:18:43.266Z,4.68
2022-11-16T21:22:52.313Z,4.70
2022-11-16T21:26:59.625Z,4.68
2022-11-16T21:31:08.484Z,4.66
2022-11-16T21:35:15.938Z,4.61
2022-11-16T21:39:23.618Z,4.58
2022-11-16T21:43:34.213Z,4.58
2022-11-16T21:47:43.194Z,4.61
2022-11-16T21:51:50.816Z,4.61
2022-11-16T21:55:58.600Z,4.57
2022-11-16T22:00:08.442Z,4.52
2022-11-16T22:04:33.615Z,4.49
2022-11-16T22:08:41.500Z,4.49
2022-11-16T22:12:49.304Z,4.49
2022-11-16T22:16:56.702Z,4.47
2022-11-16T22:21:05.602Z,4.45
2022-11-16T22:25:14.392Z,4.42
2022-11-16T22:29:22.427Z,4.41
2022-11-16T22:33:30.294Z,4.45
2022-11-16T22:37:38.809Z,4.48
2022-11-16T22:41:46.313Z,4.49
2022-11-16T22:45:57.195Z,4.51
2022-11-16T22:50:05.611Z,4.50
2022-11-16T22:54:15.841Z,4.49
2022-11-16T22:58:23.478Z,4.50
2022-11-16T23:02:31.141Z,4.51
2022-11-16T23:06:39.772Z,4.49
2022-11-16T23:11:02.246Z,4.41
2022-11-16T23:15:31.133Z,4.34
2022-11-16T23:19:56.574Z,4.29
2022-11-16T23:24:21.522Z,4.27
2022-11-16T23:28:29.347Z,4.29
2022-11-16T23:32:36.963Z,4.28
2022-11-16T23:36:44.666Z,4.25
2022-11-16T23:40:52.662Z,4.21
2022-11-16T23:45:00.165Z,4.18
2022-11-16T23:49:08.148Z,4.22
2022-11-16T23:53:16.021Z,4.28
2022-11-16T23:57:23.490Z,4.32
